sensor_id;sensor_type;location;lat;lon;timestamp;pressure;altitude;pressure_sealevel;temperature;humidity
61014;BME280;46899;47.542;19.082;2024-03-08T00:00:53;100810.59;;;4.45;100.00
61014;BME280;46899;47.542;19.082;2024-03-08T00:04:12;100814.91;;;4.49;100.00
61014;BME280;46899;47.542;19.082;2024-03-08T00:07:22;100807.19;;;4.45;100.00
61014;BME280;46899;47.542;19.082;2024-03-08T00:10:33;100800.31;;;4.48;100.00
61014;BME280;46899;47.542;19.082;2024-03-08T00:13:44;100803.72;;;4.61;100.00
61014;BME280;46899;47.542;19.082;2024-03-08T00:16:58;100807.16;;;4.55;100.00
61014;BME280;46899;47.542;19.082;2024-03-08T00:20:17;100806.25;;;4.62;100.00
61014;BME280;46899;47.542;19.082;2024-03-08T00:23:28;100811.44;;;4.64;100.00
61014;BME280;46899;47.542;19.082;2024-03-08T00:26:40;100806.28;;;4.55;100.00
61014;BME280;46899;47.542;19.082;2024-03-08T00:29:53;100803.72;;;4.55;100.00
61014;BME280;46899;47.542;19.082;2024-03-08T00:33:04;100806.28;;;4.64;100.00
61014;BME280;46899;47.542;19.082;2024-03-08T00:36:17;100801.16;;;4.56;100.00
61014;BME280;46899;47.542;19.082;2024-03-08T00:39:27;100795.09;;;4.65;100.00
61014;BME280;46899;47.542;19.082;2024-03-08T00:42:40;100796.84;;;4.58;100.00
61014;BME280;46899;47.542;19.082;2024-03-08T00:45:48;100795.06;;;4.66;100.00
61014;BME280;46899;47.542;19.082;2024-03-08T00:49:01;100789.06;;;4.69;100.00
61014;BME280;46899;47.542;19.082;2024-03-08T00:52:18;100789.97;;;4.63;100.00
61014;BME280;46899;47.542;19.082;2024-03-08T00:55:29;100789.09;;;4.61;100.00
61014;BME280;46899;47.542;19.082;2024-03-08T00:58:41;100786.50;;;4.70;100.00
61014;BME280;46899;47.542;19.082;2024-03-08T01:01:53;100784.75;;;4.66;100.00
61014;BME280;46899;47.542;19.082;2024-03-08T01:05:05;100783.91;;;4.67;100.00
61014;BME280;46899;47.542;19.082;2024-03-08T01:08:20;100783.88;;;4.78;100.00
61014;BME280;46899;47.542;19.082;2024-03-08T01:11:28;100780.50;;;4.65;100.00
61014;BME280;46899;47.542;19.082;2024-03-08T01:14:43;100785.63;;;4.67;100.00
61014;BME280;46899;47.542;19.082;2024-03-08T01:17:52;100774.47;;;4.68;100.00
61014;BME280;46899;47.542;19.082;2024-03-08T01:21:03;100776.16;;;4.73;100.00
61014;BME280;46899;47.542;19.082;2024-03-08T01:24:18;100776.13;;;4.82;100.00
61014;BME280;46899;47.542;19.082;2024-03-08T01:27:28;100780.47;;;4.73;100.00
61014;BME280;46899;47.542;19.082;2024-03-08T01:30:41;100777.88;;;4.73;100.00
61014;BME280;46899;47.542;19.082;2024-03-08T01:33:53;100776.16;;;4.72;100.00
61014;BME280;46899;47.542;19.082;2024-03-08T01:37:04;100780.44;;;4.74;100.00
61014;BME280;46899;47.542;19.082;2024-03-08T01:40:19;100780.44;;;4.79;100.00
61014;BME280;46899;47.542;19.082;2024-03-08T01:43:30;100782.19;;;4.71;100.00
61014;BME280;46899;47.542;19.082;2024-03-08T01:46:44;100783.91;;;4.72;100.00
61014;BME280;46899;47.542;19.082;2024-03-08T01:49:53;100786.50;;;4.70;100.00
61014;BME280;46899;47.542;19.082;2024-03-08T01:53:10;100777.00;;;4.77;100.00
61014;BME280;46899;47.542;19.082;2024-03-08T01:56:22;100778.69;;;4.84;100.00
61014;BME280;46899;47.542;19.082;2024-03-08T01:59:35;100771.81;;;4.83;100.00
61014;BME280;46899;47.542;19.082;2024-03-08T02:02:51;100772.66;;;4.83;100.00
61014;BME280;46899;47.542;19.082;2024-03-08T02:06:05;100777.00;;;4.80;100.00
61014;BME280;46899;47.542;19.082;2024-03-08T02:09:20;100777.88;;;4.73;100.00
61014;BME280;46899;47.542;19.082;2024-03-08T02:12:31;100776.13;;;4.81;100.00
61014;BME280;46899;47.542;19.082;2024-03-08T02:19:03;100771.84;;;4.80;100.00
61014;BME280;46899;47.542;19.082;2024-03-08T02:22:19;100778.66;;;4.89;100.00
61014;BME280;46899;47.542;19.082;2024-03-08T02:25:28;100775.19;;;4.94;100.00
61014;BME280;46899;47.542;19.082;2024-03-08T02:28:43;100780.38;;;4.90;100.00
61014;BME280;46899;47.542;19.082;2024-03-08T02:32:00;100788.03;;;5.03;100.00
61014;BME280;46899;47.542;19.082;2024-03-08T02:35:13;100790.63;;;5.03;100.00
61014;BME280;46899;47.542;19.082;2024-03-08T02:38:25;100781.22;;;4.93;100.00
61014;BME280;46899;47.542;19.082;2024-03-08T02:41:35;100786.37;;;4.93;100.00
61014;BME280;46899;47.542;19.082;2024-03-08T02:44:46;100789.84;;;4.92;100.00
61014;BME280;46899;47.542;19.082;2024-03-08T02:47:58;100778.63;;;4.96;100.00
61014;BME280;46899;47.542;19.082;2024-03-08T02:51:14;100776.91;;;4.98;100.00
61014;BME280;46899;47.542;19.082;2024-03-08T02:54:28;100776.88;;;5.01;100.00
61014;BME280;46899;47.542;19.082;2024-03-08T02:57:42;100784.59;;;5.06;100.00
61014;BME280;46899;47.542;19.082;2024-03-08T03:00:53;100792.31;;;5.04;100.00
61014;BME280;46899;47.542;19.082;2024-03-08T03:04:02;100794.06;;;5.02;100.00
61014;BME280;46899;47.542;19.082;2024-03-08T03:07:14;100797.50;;;5.00;100.00
61014;BME280;46899;47.542;19.082;2024-03-08T03:10:26;100794.91;;;5.06;100.00
61014;BME280;46899;47.542;19.082;2024-03-08T03:13:40;100794.03;;;5.08;100.00
61014;BME280;46899;47.542;19.082;2024-03-08T03:16:57;100796.63;;;5.05;100.00
61014;BME280;46899;47.542;19.082;2024-03-08T03:20:09;100800.09;;;5.01;100.00
61014;BME280;46899;47.542;19.082;2024-03-08T03:23:27;100804.31;;;5.11;100.00
61014;BME280;46899;47.542;19.082;2024-03-08T03:26:43;100801.81;;;4.95;100.00
61014;BME280;46899;47.542;19.082;2024-03-08T03:29:55;100802.66;;;5.00;100.00
61014;BME280;46899;47.542;19.082;2024-03-08T03:33:08;100800.94;;;4.97;100.00
61014;BME280;46899;47.542;19.082;2024-03-08T03:36:22;100803.53;;;5.00;100.00
61014;BME280;46899;47.542;19.082;2024-03-08T03:39:33;100807.03;;;4.87;100.00
61014;BME280;46899;47.542;19.082;2024-03-08T03:42:49;100808.78;;;4.85;100.00
61014;BME280;46899;47.542;19.082;2024-03-08T03:45:59;100806.19;;;4.82;100.00
61014;BME280;46899;47.542;19.082;2024-03-08T03:49:13;100808.78;;;4.85;100.00
61014;BME280;46899;47.542;19.082;2024-03-08T03:52:24;100803.59;;;4.83;100.00
61014;BME280;46899;47.542;19.082;2024-03-08T03:55:36;100801.84;;;4.90;100.00
61014;BME280;46899;47.542;19.082;2024-03-08T03:58:49;100805.31;;;4.83;100.00
61014;BME280;46899;47.542;19.082;2024-03-08T04:02:00;100801.00;;;4.88;100.00
61014;BME280;46899;47.542;19.082;2024-03-08T04:05:11;100800.19;;;4.80;100.00
61014;BME280;46899;47.542;19.082;2024-03-08T04:08:23;100806.13;;;4.93;100.00
61014;BME280;46899;47.542;19.082;2024-03-08T04:11:35;100807.84;;;4.95;100.00
61014;BME280;46899;47.542;19.082;2024-03-08T04:14:50;100807.03;;;4.81;100.00
61014;BME280;46899;47.542;19.082;2024-03-08T04:18:01;100807.88;;;4.91;100.00
61014;BME280;46899;47.542;19.082;2024-03-08T04:21:14;100809.66;;;4.78;100.00
61014;BME280;46899;47.542;19.082;2024-03-08T04:24:25;100807.06;;;4.73;100.00
61014;BME280;46899;47.542;19.082;2024-03-08T04:27:33;100808.78;;;4.79;100.00
61014;BME280;46899;47.542;19.082;2024-03-08T04:30:45;100805.34;;;4.81;100.00
61014;BME280;46899;47.542;19.082;2024-03-08T04:33:54;100807.88;;;4.83;100.00
61014;BME280;46899;47.542;19.082;2024-03-08T04:37:09;100809.66;;;4.78;100.00
61014;BME280;46899;47.542;19.082;2024-03-08T04:40:24;100807.03;;;4.81;100.00
61014;BME280;46899;47.542;19.082;2024-03-08T04:43:36;100812.25;;;4.72;100.00
61014;BME280;46899;47.542;19.082;2024-03-08T04:46:53;100813.97;;;4.71;100.00
61014;BME280;46899;47.542;19.082;2024-03-08T04:50:05;100801.03;;;4.79;100.00
61014;BME280;46899;47.542;19.082;2024-03-08T04:53:15;100809.66;;;4.75;100.00
61014;BME280;46899;47.542;19.082;2024-03-08T04:56:28;100817.41;;;4.67;100.00
61014;BME280;46899;47.542;19.082;2024-03-08T04:59:35;100820.00;;;4.66;100.00
61014;BME280;46899;47.542;19.082;2024-03-08T05:02:48;100814.84;;;4.70;100.00
61014;BME280;46899;47.542;19.082;2024-03-08T05:05:59;100815.69;;;4.66;100.00
61014;BME280;46899;47.542;19.082;2024-03-08T05:09:07;100820.88;;;4.62;100.00
61014;BME280;46899;47.542;19.082;2024-03-08T05:12:20;100818.28;;;4.68;100.00
61014;BME280;46899;47.542;19.082;2024-03-08T05:15:29;100826.00;;;4.69;100.00
61014;BME280;46899;47.542;19.082;2024-03-08T05:18:44;100811.41;;;4.70;100.00
61014;BME280;46899;47.542;19.082;2024-03-08T05:21:58;100823.44;;;4.68;100.00
61014;BME280;46899;47.542;19.082;2024-03-08T05:25:11;100823.44;;;4.71;100.00
61014;BME280;46899;47.542;19.082;2024-03-08T05:28:23;100825.16;;;4.67;100.00
61014;BME280;46899;47.542;19.082;2024-03-08T05:31:46;100829.50;;;4.52;100.00
61014;BME280;46899;47.542;19.082;2024-03-08T05:34:58;100837.22;;;4.61;100.00
61014;BME280;46899;47.542;19.082;2024-03-08T05:38:10;100834.63;;;4.64;100.00
61014;BME280;46899;47.542;19.082;2024-03-08T05:41:25;100837.16;;;4.73;100.00
61014;BME280;46899;47.542;19.082;2024-03-08T05:44:33;100832.91;;;4.66;100.00
61014;BME280;46899;47.542;19.082;2024-03-08T05:47:49;100844.06;;;4.65;100.00
61014;BME280;46899;47.542;19.082;2024-03-08T05:51:00;100844.88;;;4.76;100.00
61014;BME280;46899;47.542;19.082;2024-03-08T05:54:13;100848.31;;;4.72;100.00
61014;BME280;46899;47.542;19.082;2024-03-08T05:57:25;100853.47;;;4.69;100.00
61014;BME280;46899;47.542;19.082;2024-03-08T06:00:34;100855.22;;;4.73;100.00
61014;BME280;46899;47.542;19.082;2024-03-08T06:03:49;100865.50;;;4.74;100.00
61014;BME280;46899;47.542;19.082;2024-03-08T06:06:56;100857.81;;;4.64;100.00
61014;BME280;46899;47.542;19.082;2024-03-08T06:10:12;100864.66;;;4.75;100.00
61014;BME280;46899;47.542;19.082;2024-03-08T06:13:23;100860.31;;;4.76;100.00
61014;BME280;46899;47.542;19.082;2024-03-08T06:16:35;100857.78;;;4.70;100.00
61014;BME280;46899;47.542;19.082;2024-03-08T06:19:43;100858.59;;;4.87;100.00
61014;BME280;46899;47.542;19.082;2024-03-08T06:22:52;100865.47;;;4.79;100.00
61014;BME280;46899;47.542;19.082;2024-03-08T06:25:59;100869.78;;;4.80;100.00
61014;BME280;46899;47.542;19.082;2024-03-08T06:29:02;100862.88;;;4.91;100.00
61014;BME280;46899;47.542;19.082;2024-03-08T06:32:10;100863.78;;;4.82;100.00
61014;BME280;46899;47.542;19.082;2024-03-08T06:35:13;100861.13;;;4.90;100.00
61014;BME280;46899;47.542;19.082;2024-03-08T06:38:22;100861.13;;;4.93;100.00
61014;BME280;46899;47.542;19.082;2024-03-08T06:41:29;100874.84;;;5.00;100.00
61014;BME280;46899;47.542;19.082;2024-03-08T06:44:39;100873.16;;;4.93;100.00
61014;BME280;46899;47.542;19.082;2024-03-08T06:47:52;100871.41;;;5.08;100.00
61014;BME280;46899;47.542;19.082;2024-03-08T06:50:59;100874.78;;;5.22;100.00
61014;BME280;46899;47.542;19.082;2024-03-08T06:54:03;100875.69;;;5.11;100.00
61014;BME280;46899;47.542;19.082;2024-03-08T06:57:12;100879.91;;;5.21;100.00
61014;BME280;46899;47.542;19.082;2024-03-08T07:00:20;100883.38;;;5.21;100.00
61014;BME280;46899;47.542;19.082;2024-03-08T07:03:24;100874.69;;;5.36;100.00
61014;BME280;46899;47.542;19.082;2024-03-08T07:06:32;100881.63;;;5.29;100.00
61014;BME280;46899;47.542;19.082;2024-03-08T07:09:40;100875.47;;;5.53;100.00
61014;BME280;46899;47.542;19.082;2024-03-08T07:12:50;100884.97;;;5.43;100.00
61014;BME280;46899;47.542;19.082;2024-03-08T07:15:55;100883.16;;;5.58;100.00
61014;BME280;46899;47.542;19.082;2024-03-08T07:19:01;100883.19;;;5.54;100.00
61014;BME280;46899;47.542;19.082;2024-03-08T07:22:09;100880.66;;;5.48;100.00
61014;BME280;46899;47.542;19.082;2024-03-08T07:25:18;100884.97;;;5.43;100.00
61014;BME280;46899;47.542;19.082;2024-03-08T07:28:26;100882.28;;;5.62;100.00
61014;BME280;46899;47.542;19.082;2024-03-08T07:31:33;100888.22;;;5.76;100.00
61014;BME280;46899;47.542;19.082;2024-03-08T07:34:56;100895.09;;;5.77;100.00
61014;BME280;46899;47.542;19.082;2024-03-08T07:38:00;100900.28;;;5.68;100.00
61014;BME280;46899;47.542;19.082;2024-03-08T07:41:03;100894.22;;;5.75;100.00
61014;BME280;46899;47.542;19.082;2024-03-08T07:44:09;100896.03;;;5.65;100.00
61014;BME280;46899;47.542;19.082;2024-03-08T07:47:15;100899.53;;;5.49;100.00
61014;BME280;46899;47.542;19.082;2024-03-08T07:50:30;100900.38;;;5.57;100.00
61014;BME280;46899;47.542;19.082;2024-03-08T07:53:43;100895.19;;;5.62;100.00
61014;BME280;46899;47.542;19.082;2024-03-08T07:56:49;100895.97;;;5.74;100.00
61014;BME280;46899;47.542;19.082;2024-03-08T07:59:56;100898.41;;;5.97;100.00
61014;BME280;46899;47.542;19.082;2024-03-08T08:03:00;100900.06;;;6.07;100.00
61014;BME280;46899;47.542;19.082;2024-03-08T08:06:05;100903.66;;;5.88;100.00
61014;BME280;46899;47.542;19.082;2024-03-08T08:09:10;100895.91;;;5.80;100.00
61014;BME280;46899;47.542;19.082;2024-03-08T08:12:25;100903.50;;;6.06;100.00
61014;BME280;46899;47.542;19.082;2024-03-08T08:15:28;100897.50;;;6.01;100.00
61014;BME280;46899;47.542;19.082;2024-03-08T08:18:32;100904.09;;;6.37;100.00
61014;BME280;46899;47.542;19.082;2024-03-08T08:21:39;100897.53;;;6.02;100.00
61014;BME280;46899;47.542;19.082;2024-03-08T08:24:47;100898.50;;;5.88;100.00
61014;BME280;46899;47.542;19.082;2024-03-08T08:27:55;100897.50;;;6.04;100.00
61014;BME280;46899;47.542;19.082;2024-03-08T08:31:06;100905.34;;;5.89;100.00
61014;BME280;46899;47.542;19.082;2024-03-08T08:34:14;100903.53;;;6.04;100.00
61014;BME280;46899;47.542;19.082;2024-03-08T08:37:18;100898.37;;;6.04;100.00
61014;BME280;46899;47.542;19.082;2024-03-08T08:40:24;100897.59;;;5.90;100.00
61014;BME280;46899;47.542;19.082;2024-03-08T08:43:33;100896.62;;;6.03;100.00
61014;BME280;46899;47.542;19.082;2024-03-08T08:46:39;100899.94;;;6.20;100.00
61014;BME280;46899;47.542;19.082;2024-03-08T08:49:44;100894.97;;;5.98;100.00
61014;BME280;46899;47.542;19.082;2024-03-08T08:52:59;100897.47;;;6.10;100.00
61014;BME280;46899;47.542;19.082;2024-03-08T08:56:04;100895.69;;;6.13;100.00
61014;BME280;46899;47.542;19.082;2024-03-08T08:59:17;100899.19;;;6.09;100.00
61014;BME280;46899;47.542;19.082;2024-03-08T09:02:26;100897.25;;;6.33;100.00
61014;BME280;46899;47.542;19.082;2024-03-08T09:05:30;100903.47;;;6.12;100.00
61014;BME280;46899;47.542;19.082;2024-03-08T09:08:34;100900.75;;;6.29;100.00
61014;BME280;46899;47.542;19.082;2024-03-08T09:11:38;100896.16;;;6.59;100.00
61014;BME280;46899;47.542;19.082;2024-03-08T09:14:47;100895.09;;;6.77;100.00
61014;BME280;46899;47.542;19.082;2024-03-08T09:17:55;100897.75;;;6.71;100.00
61014;BME280;46899;47.542;19.082;2024-03-08T09:20:59;100901.00;;;6.86;100.00
61014;BME280;46899;47.542;19.082;2024-03-08T09:24:07;100894.81;;;7.01;100.00
61014;BME280;46899;47.542;19.082;2024-03-08T09:27:11;100890.75;;;6.80;100.00
61014;BME280;46899;47.542;19.082;2024-03-08T09:30:16;100900.06;;;6.94;100.00
61014;BME280;46899;47.542;19.082;2024-03-08T09:33:25;100894.97;;;6.86;100.00
61014;BME280;46899;47.542;19.082;2024-03-08T09:36:32;100899.22;;;6.95;100.00
61014;BME280;46899;47.542;19.082;2024-03-08T09:39:36;100898.72;;;6.61;100.00
61014;BME280;46899;47.542;19.082;2024-03-08T09:42:47;100898.41;;;6.88;100.00
61014;BME280;46899;47.542;19.082;2024-03-08T09:45:52;100894.28;;;6.73;100.00
61014;BME280;46899;47.542;19.082;2024-03-08T09:48:57;100897.66;;;7.47;100.00
61014;BME280;46899;47.542;19.082;2024-03-08T09:52:07;100893.00;;;7.72;100.00
61014;BME280;46899;47.542;19.082;2024-03-08T09:55:15;100896.53;;;7.66;100.00
61014;BME280;46899;47.542;19.082;2024-03-08T09:58:27;100906.09;;;8.17;100.00
61014;BME280;46899;47.542;19.082;2024-03-08T10:01:41;100900.75;;;8.30;100.00
61014;BME280;46899;47.542;19.082;2024-03-08T10:04:51;100900.06;;;8.67;100.00
61014;BME280;46899;47.542;19.082;2024-03-08T10:08:00;100903.31;;;8.80;100.00
61014;BME280;46899;47.542;19.082;2024-03-08T10:11:07;100903.00;;;8.49;100.00
61014;BME280;46899;47.542;19.082;2024-03-08T10:14:11;100896.94;;;7.97;100.00
61014;BME280;46899;47.542;19.082;2024-03-08T10:17:16;100907.94;;;8.12;100.00
61014;BME280;46899;47.542;19.082;2024-03-08T10:20:22;100894.56;;;8.38;100.00
61014;BME280;46899;47.542;19.082;2024-03-08T10:23:27;100901.06;;;8.62;100.00
61014;BME280;46899;47.542;19.082;2024-03-08T10:26:32;100900.16;;;8.63;100.00
61014;BME280;46899;47.542;19.082;2024-03-08T10:29:48;100899.75;;;8.84;100.00
61014;BME280;46899;47.542;19.082;2024-03-08T10:32:55;100898.75;;;8.91;100.00
61014;BME280;46899;47.542;19.082;2024-03-08T10:36:06;100895.44;;;8.84;100.00
61014;BME280;46899;47.542;19.082;2024-03-08T10:39:23;100894.00;;;8.19;100.00
61014;BME280;46899;47.542;19.082;2024-03-08T10:42:34;100893.28;;;8.60;100.00
61014;BME280;46899;47.542;19.082;2024-03-08T10:45:42;100896.75;;;8.61;100.00
61014;BME280;46899;47.542;19.082;2024-03-08T10:48:58;100891.19;;;8.80;100.00
61014;BME280;46899;47.542;19.082;2024-03-08T10:52:08;100881.63;;;8.82;100.00
61014;BME280;46899;47.542;19.082;2024-03-08T10:55:19;100879.97;;;9.21;100.00
61014;BME280;46899;47.542;19.082;2024-03-08T10:58:27;100888.94;;;9.85;100.00
61014;BME280;46899;47.542;19.082;2024-03-08T11:01:32;100887.59;;;10.05;100.00
61014;BME280;46899;47.542;19.082;2024-03-08T11:04:38;100881.41;;;9.74;100.00
61014;BME280;46899;47.542;19.082;2024-03-08T11:07:43;100889.56;;;9.94;100.00
61014;BME280;46899;47.542;19.082;2024-03-08T11:10:52;100880.63;;;9.32;100.00
61014;BME280;46899;47.542;19.082;2024-03-08T11:14:02;100880.16;;;9.12;100.00
61014;BME280;46899;47.542;19.082;2024-03-08T11:17:10;100877.13;;;8.92;100.00
61014;BME280;46899;47.542;19.082;2024-03-08T11:20:19;100883.12;;;8.50;100.00
61014;BME280;46899;47.542;19.082;2024-03-08T11:23:26;100873.25;;;8.68;100.00
61014;BME280;46899;47.542;19.082;2024-03-08T11:26:30;100878.41;;;8.70;100.00
61014;BME280;46899;47.542;19.082;2024-03-08T11:29:36;100871.41;;;8.75;100.00
61014;BME280;46899;47.542;19.082;2024-03-08T11:32:44;100871.63;;;8.63;100.00
61014;BME280;46899;47.542;19.082;2024-03-08T11:35:50;100868.97;;;8.66;100.00
61014;BME280;46899;47.542;19.082;2024-03-08T11:38:57;100869.16;;;8.57;100.00
61014;BME280;46899;47.542;19.082;2024-03-08T11:42:00;100867.34;;;8.62;100.00
61014;BME280;46899;47.542;19.082;2024-03-08T11:45:08;100862.34;;;8.51;100.00
61014;BME280;46899;47.542;19.082;2024-03-08T11:48:16;100859.09;;;8.39;100.00
61014;BME280;46899;47.542;19.082;2024-03-08T11:51:22;100860.78;;;8.41;100.00
61014;BME280;46899;47.542;19.082;2024-03-08T11:54:27;100860.13;;;8.30;100.00
61014;BME280;46899;47.542;19.082;2024-03-08T11:57:32;100849.88;;;8.70;100.00
61014;BME280;46899;47.542;19.082;2024-03-08T12:00:36;100847.91;;;8.81;100.00
61014;BME280;46899;47.542;19.082;2024-03-08T12:03:55;100842.94;;;9.13;100.00
61014;BME280;46899;47.542;19.082;2024-03-08T12:07:10;100844.63;;;9.14;100.00
61014;BME280;46899;47.542;19.082;2024-03-08T12:10:21;100845.41;;;9.19;100.00
61014;BME280;46899;47.542;19.082;2024-03-08T12:13:31;100843.31;;;8.95;100.00
61014;BME280;46899;47.542;19.082;2024-03-08T12:16:37;100844.03;;;8.59;100.00
61014;BME280;46899;47.542;19.082;2024-03-08T12:19:46;100839.31;;;8.79;100.00
61014;BME280;46899;47.542;19.082;2024-03-08T12:22:52;100837.53;;;8.38;100.00
61014;BME280;46899;47.542;19.082;2024-03-08T12:25:58;100831.06;;;8.11;100.00
61014;BME280;46899;47.542;19.082;2024-03-08T12:32:25;100837.06;;;8.13;100.00
61014;BME280;46899;47.542;19.082;2024-03-08T12:35:33;100828.03;;;8.37;100.00
61014;BME280;46899;47.542;19.082;2024-03-08T12:38:43;100827.47;;;8.18;100.00
61014;BME280;46899;47.542;19.082;2024-03-08T12:41:49;100832.53;;;8.24;100.00
61014;BME280;46899;47.542;19.082;2024-03-08T12:44:56;100829.75;;;8.37;100.00
61014;BME280;46899;47.542;19.082;2024-03-08T12:47:59;100818.78;;;8.67;100.00
61014;BME280;46899;47.542;19.082;2024-03-08T12:51:05;100827.53;;;8.63;100.00
61014;BME280;46899;47.542;19.082;2024-03-08T12:54:11;100827.72;;;8.54;100.00
61014;BME280;46899;47.542;19.082;2024-03-08T12:57:17;100819.75;;;8.63;100.00
61014;BME280;46899;47.542;19.082;2024-03-08T13:00:22;100811.66;;;8.78;100.00
61014;BME280;46899;47.542;19.082;2024-03-08T13:03:30;100819.16;;;8.49;100.00
61014;BME280;46899;47.542;19.082;2024-03-08T13:06:39;100819.50;;;8.31;100.00
61014;BME280;46899;47.542;19.082;2024-03-08T13:09:51;100810.13;;;8.68;100.00
61014;BME280;46899;47.542;19.082;2024-03-08T13:13:01;100812.25;;;8.49;100.00
61014;BME280;46899;47.542;19.082;2024-03-08T13:16:07;100810.00;;;8.31;100.00
61014;BME280;46899;47.542;19.082;2024-03-08T13:19:18;100807.50;;;8.23;100.00
61014;BME280;46899;47.542;19.082;2024-03-08T13:22:31;100804.97;;;8.20;100.00
61014;BME280;46899;47.542;19.082;2024-03-08T13:25:42;100802.41;;;8.19;100.00
61014;BME280;46899;47.542;19.082;2024-03-08T13:28:48;100809.13;;;8.31;100.00
61014;BME280;46899;47.542;19.082;2024-03-08T13:32:00;100804.69;;;7.87;100.00
61014;BME280;46899;47.542;19.082;2024-03-08T13:35:11;100803.03;;;7.84;100.00
61014;BME280;46899;47.542;19.082;2024-03-08T13:38:24;100805.25;;;8.05;100.00
61014;BME280;46899;47.542;19.082;2024-03-08T13:41:33;100800.41;;;7.86;100.00
61014;BME280;46899;47.542;19.082;2024-03-08T13:44:43;100796.25;;;7.77;100.00
61014;BME280;46899;47.542;19.082;2024-03-08T13:47:54;100795.09;;;7.93;100.00
61014;BME280;46899;47.542;19.082;2024-03-08T13:51:04;100795.25;;;7.83;100.00
61014;BME280;46899;47.542;19.082;2024-03-08T13:54:16;100797.97;;;7.75;100.00
61014;BME280;46899;47.542;19.082;2024-03-08T13:57:28;100791.69;;;7.91;100.00
61014;BME280;46899;47.542;19.082;2024-03-08T14:00:36;100791.59;;;7.94;100.00
61014;BME280;46899;47.542;19.082;2024-03-08T14:03:50;100792.34;;;8.02;100.00
61014;BME280;46899;47.542;19.082;2024-03-08T14:06:59;100792.16;;;8.11;100.00
61014;BME280;46899;47.542;19.082;2024-03-08T14:10:13;100791.41;;;8.06;100.00
61014;BME280;46899;47.542;19.082;2024-03-08T14:13:21;100787.41;;;8.38;100.00
61014;BME280;46899;47.542;19.082;2024-03-08T14:16:31;100787.34;;;8.41;100.00
61014;BME280;46899;47.542;19.082;2024-03-08T14:19:41;100786.34;;;8.00;100.00
61014;BME280;46899;47.542;19.082;2024-03-08T14:22:55;100787.62;;;8.24;100.00
61014;BME280;46899;47.542;19.082;2024-03-08T14:26:03;100781.75;;;8.14;100.00
61014;BME280;46899;47.542;19.082;2024-03-08T14:29:11;100773.50;;;7.93;100.00
61014;BME280;46899;47.542;19.082;2024-03-08T14:32:24;100787.13;;;8.05;100.00
61014;BME280;46899;47.542;19.082;2024-03-08T14:35:32;100785.47;;;8.00;100.00
61014;BME280;46899;47.542;19.082;2024-03-08T14:38:43;100781.44;;;8.33;100.00
61014;BME280;46899;47.542;19.082;2024-03-08T14:41:56;100776.72;;;8.07;100.00
61014;BME280;46899;47.542;19.082;2024-03-08T14:45:04;100779.22;;;8.11;100.00
61014;BME280;46899;47.542;19.082;2024-03-08T14:48:18;100777.66;;;8.03;100.00
61014;BME280;46899;47.542;19.082;2024-03-08T14:51:28;100775.91;;;8.03;100.00
61014;BME280;46899;47.542;19.082;2024-03-08T14:54:39;100770.75;;;8.02;100.00
61014;BME280;46899;47.542;19.082;2024-03-08T14:57:52;100780.41;;;7.92;100.00
61014;BME280;46899;47.542;19.082;2024-03-08T15:01:00;100773.84;;;7.73;100.00
61014;BME280;46899;47.542;19.082;2024-03-08T15:04:10;100763.47;;;7.73;100.00
61014;BME280;46899;47.542;19.082;2024-03-08T15:07:21;100764.34;;;7.74;100.00
61014;BME280;46899;47.542;19.082;2024-03-08T15:10:30;100756.72;;;7.63;100.00
61014;BME280;46899;47.542;19.082;2024-03-08T15:13:45;100763.63;;;7.64;100.00
61014;BME280;46899;47.542;19.082;2024-03-08T15:16:58;100755.03;;;7.62;100.00
61014;BME280;46899;47.542;19.082;2024-03-08T15:20:11;100764.91;;;7.39;100.00
61014;BME280;46899;47.542;19.082;2024-03-08T15:23:22;100764.16;;;7.31;100.00
61014;BME280;46899;47.542;19.082;2024-03-08T15:26:33;100761.53;;;7.34;100.00
61014;BME280;46899;47.542;19.082;2024-03-08T15:29:44;100761.44;;;7.41;100.00
61014;BME280;46899;47.542;19.082;2024-03-08T15:32:59;100755.53;;;7.32;100.00
61014;BME280;46899;47.542;19.082;2024-03-08T15:36:10;100758.94;;;7.34;100.00
61014;BME280;46899;47.542;19.082;2024-03-08T15:39:24;100764.00;;;7.40;100.00
61014;BME280;46899;47.542;19.082;2024-03-08T15:42:34;100754.81;;;7.22;100.00
61014;BME280;46899;47.542;19.082;2024-03-08T15:45:45;100769.25;;;7.37;100.00
61014;BME280;46899;47.542;19.082;2024-03-08T15:48:56;100764.09;;;7.37;100.00
61014;BME280;46899;47.542;19.082;2024-03-08T15:52:08;100769.59;;;7.16;100.00
61014;BME280;46899;47.542;19.082;2024-03-08T15:55:18;100761.81;;;7.14;100.00
61014;BME280;46899;47.542;19.082;2024-03-08T15:58:36;100755.81;;;7.12;100.00
61014;BME280;46899;47.542;19.082;2024-03-08T16:01:43;100761.72;;;7.22;100.00
61014;BME280;46899;47.542;19.082;2024-03-08T16:05:05;100756.66;;;7.14;100.00
61014;BME280;46899;47.542;19.082;2024-03-08T16:08:19;100759.13;;;7.22;100.00
61014;BME280;46899;47.542;19.082;2024-03-08T16:11:29;100758.50;;;7.06;100.00
61014;BME280;46899;47.542;19.082;2024-03-08T16:14:40;100759.31;;;7.10;100.00
61014;BME280;46899;47.542;19.082;2024-03-08T16:17:54;100758.44;;;7.11;100.00
61014;BME280;46899;47.542;19.082;2024-03-08T16:21:03;100763.72;;;7.03;100.00
61014;BME280;46899;47.542;19.082;2024-03-08T16:24:15;100769.00;;;6.97;100.00
61014;BME280;46899;47.542;19.082;2024-03-08T16:27:24;100762.84;;;7.04;100.00